Time;durP1;ratioP1;P1;durP2;ratioP2;P2;SDS_P1;SDS_P2;PMS_P1;PMS_P2;Temp;Humidity;BMP_temperature;BMP_pressure;BME280_temperature;BME280_humidity;BME280_pressure;Samples;Min_cycle;Max_cycle;Signal;HPM_P1;HPM_P2
2023/09/28 00:01:16;;;;;;;11.20;10.20;;;;;;;16.50;73.96;93143.56;5041262;28;20189;-75
2023/09/28 00:03:42;;;;;;;13.47;12.07;;;;;;;16.31;75.24;93148.19;5056136;28;20301;-75
2023/09/28 00:06:08;;;;;;;12.47;11.23;;;;;;;16.32;75.53;93154.25;5043816;28;20197;-76
2023/09/28 00:08:33;;;;;;;11.17;10.17;;;;;;;16.27;75.99;93151.75;5047913;28;20285;-75
2023/09/28 00:10:59;;;;;;;13.23;11.00;;;;;;;16.19;76.70;93155.13;5060734;28;20181;-75
2023/09/28 00:13:24;;;;;;;12.40;11.20;;;;;;;16.21;76.94;93145.81;5073159;28;20237;-75
2023/09/28 00:15:50;;;;;;;11.63;10.50;;;;;;;16.20;76.80;93146.91;5068053;28;20189;-75
2023/09/28 00:18:15;;;;;;;13.30;11.20;;;;;;;16.19;77.45;93140.06;5063902;28;20253;-75
2023/09/28 00:20:40;;;;;;;12.63;11.47;;;;;;;16.09;77.46;93137.69;5067020;28;20196;-75
2023/09/28 00:23:06;;;;;;;12.03;11.03;;;;;;;16.07;77.14;93137.19;5077164;28;20229;-75
2023/09/28 00:25:31;;;;;;;13.33;11.93;;;;;;;16.09;77.18;93135.06;5077556;28;20185;-75
2023/09/28 00:27:57;;;;;;;12.70;11.20;;;;;;;16.04;77.41;93143.84;5071409;28;20233;-76
2023/09/28 00:30:25;;;;;;;13.27;11.60;;;;;;;16.07;77.15;93131.94;5070969;28;20822;-75
2023/09/28 00:32:52;;;;;;;12.13;11.03;;;;;;;16.02;76.94;93134.66;5074101;28;20221;-74
2023/09/28 00:35:18;;;;;;;13.67;12.23;;;;;;;15.99;77.34;93140.53;5075496;28;20262;-76
2023/09/28 00:37:44;;;;;;;12.03;10.93;;;;;;;15.82;77.86;93135.91;5066428;28;20209;-75
2023/09/28 00:42:43;;;;;;;13.13;12.03;;;;;;;15.90;77.66;93137.06;5053922;28;20189;-74
2023/09/28 00:45:10;;;;;;;11.50;10.40;;;;;;;15.74;78.07;93139.25;5054651;28;20209;-75
2023/09/28 00:47:36;;;;;;;11.70;10.80;;;;;;;15.71;77.86;93120.63;5048594;28;20186;-75
2023/09/28 00:50:03;;;;;;;11.80;10.83;;;;;;;15.85;77.75;93142.44;5051337;28;20207;-75
2023/09/28 00:52:30;;;;;;;11.77;10.50;;;;;;;15.89;77.62;93125.75;5038425;28;20183;-75
2023/09/28 00:54:56;;;;;;;13.63;10.93;;;;;;;15.76;78.48;93128.44;5047815;28;20240;-75
2023/09/28 00:57:22;;;;;;;13.03;11.57;;;;;;;15.80;78.29;93127.53;5037906;28;20282;-75
2023/09/28 00:59:48;;;;;;;12.40;11.57;;;;;;;15.63;79.12;93132.66;5050717;28;20218;-76
2023/09/28 01:02:14;;;;;;;11.53;10.73;;;;;;;15.64;79.28;93131.56;5070459;28;20185;-75
2023/09/28 01:04:39;;;;;;;11.77;10.80;;;;;;;15.58;79.29;93129.34;5063643;28;20218;-74
2023/09/28 01:07:07;;;;;;;11.80;10.90;;;;;;;15.46;79.53;93118.53;5072329;28;20189;-74
2023/09/28 01:09:32;;;;;;;12.03;10.97;;;;;;;15.42;79.84;93115.75;5066113;28;20229;-76
2023/09/28 01:11:58;;;;;;;13.50;12.00;;;;;;;15.42;80.73;93130.75;5075808;28;20177;-75
2023/09/28 01:14:24;;;;;;;12.17;11.17;;;;;;;15.44;80.61;93132.00;5064263;28;20231;-75
2023/09/28 01:16:50;;;;;;;13.07;11.87;;;;;;;15.46;80.78;93131.69;5062154;28;20194;-75
2023/09/28 01:19:15;;;;;;;12.57;11.43;;;;;;;15.38;81.37;93127.13;5070944;28;20281;-75
2023/09/28 01:21:41;;;;;;;12.70;11.60;;;;;;;15.19;82.04;93116.69;5074142;28;20190;-75
2023/09/28 01:24:06;;;;;;;12.57;11.57;;;;;;;15.10;82.72;93128.97;5065054;28;20229;-75
2023/09/28 01:26:32;;;;;;;11.83;10.97;;;;;;;15.06;82.82;93112.25;5067670;28;20195;-76
2023/09/28 01:28:59;;;;;;;14.47;12.13;;;;;;;15.12;83.44;93129.47;5073536;28;20217;-75
2023/09/28 01:31:24;;;;;;;12.00;11.13;;;;;;;15.05;83.72;93123.81;5061921;28;20196;-75
2023/09/28 01:33:49;;;;;;;12.90;11.63;;;;;;;15.10;83.96;93134.25;5067153;28;20222;-76
2023/09/28 01:36:15;;;;;;;15.47;9.97;;;;;;;15.08;83.71;93138.25;5066758;28;20199;-76
2023/09/28 01:38:50;;;;;;;12.20;11.03;;;;;;;15.13;83.52;93138.16;5073609;28;20225;-75
2023/09/28 01:41:16;;;;;;;12.23;11.20;;;;;;;14.92;84.36;93131.72;5063150;28;20896;-74
2023/09/28 01:43:41;;;;;;;18.27;11.33;;;;;;;14.85;83.49;93116.31;5073455;28;20239;-75
2023/09/28 01:46:07;;;;;;;12.70;10.80;;;;;;;15.06;83.31;93130.66;5062147;28;20194;-75
2023/09/28 01:48:32;;;;;;;13.07;11.80;;;;;;;15.06;83.21;93137.75;5077217;28;20225;-75
2023/09/28 01:50:57;;;;;;;17.30;11.03;;;;;;;15.09;82.04;93137.16;5074574;28;20191;-74
2023/09/28 01:53:23;;;;;;;12.40;11.10;;;;;;;15.01;81.69;93132.56;5071716;28;20221;-74
2023/09/28 01:55:48;;;;;;;12.70;10.90;;;;;;;15.11;79.45;93121.88;5065322;28;20395;-75
2023/09/28 01:58:14;;;;;;;10.93;9.93;;;;;;;15.09;80.03;93126.63;5070302;28;20964;-74
2023/09/28 02:00:40;;;;;;;11.43;10.63;;;;;;;15.02;79.42;93131.53;5072483;28;20253;-75
2023/09/28 02:03:08;;;;;;;11.23;10.37;;;;;;;14.96;79.89;93132.69;5070885;28;20221;-74
2023/09/28 02:05:34;;;;;;;11.10;10.20;;;;;;;15.07;79.05;93139.28;5074777;28;20244;-75
2023/09/28 02:08:02;;;;;;;11.20;10.47;;;;;;;14.82;79.69;93129.28;5067069;28;20250;-75
2023/09/28 02:10:28;;;;;;;9.97;9.30;;;;;;;15.03;79.24;93136.50;5069898;28;20219;-75
2023/09/28 02:12:55;;;;;;;11.37;10.30;;;;;;;14.80;79.29;93118.28;5077213;28;20225;-74
2023/09/28 02:15:22;;;;;;;10.43;9.50;;;;;;;14.82;78.49;93129.28;5070394;28;20213;-75
2023/09/28 02:17:48;;;;;;;11.00;10.10;;;;;;;14.74;78.81;93135.97;5065476;28;20188;-75
2023/09/28 02:20:15;;;;;;;11.57;10.47;;;;;;;14.70;77.81;93119.22;5067192;28;20244;-75
2023/09/28 02:22:44;;;;;;;10.37;9.47;;;;;;;14.94;77.13;93130.34;5059729;28;20186;-75
2023/09/28 02:25:18;;;;;;;11.50;10.70;;;;;;;14.95;77.11;93139.81;5059622;28;20220;-75
2023/09/28 02:27:45;;;;;;;11.47;10.10;;;;;;;14.92;77.46;93137.75;5068478;28;20173;-75
2023/09/28 02:30:12;;;;;;;9.47;8.60;;;;;;;14.66;77.12;93128.78;5080783;28;20208;-75
2023/09/28 02:32:43;;;;;;;10.53;9.97;;;;;;;14.93;76.29;93133.25;5071003;28;20238;-74
2023/09/28 02:35:09;;;;;;;10.50;9.70;;;;;;;14.88;75.80;93136.75;5065221;28;20246;-75
2023/09/28 02:37:35;;;;;;;10.57;9.67;;;;;;;14.88;75.83;93141.25;5062793;28;20236;-75
2023/09/28 02:40:04;;;;;;;17.63;11.10;;;;;;;14.82;75.97;93142.44;5060966;28;20196;-75
2023/09/28 02:42:30;;;;;;;11.40;10.60;;;;;;;14.71;75.52;93128.66;5052601;28;20324;-75
2023/09/28 02:44:56;;;;;;;12.70;10.07;;;;;;;14.92;74.67;93142.22;5067412;28;20225;-75
2023/09/28 02:47:22;;;;;;;10.47;9.73;;;;;;;14.82;74.29;93143.19;5060136;28;20190;-75
2023/09/28 02:49:48;;;;;;;10.90;10.10;;;;;;;14.88;73.78;93151.78;5070804;28;20738;-75
2023/09/28 02:52:14;;;;;;;18.50;10.60;;;;;;;14.97;74.17;93153.44;5061957;28;20189;-76
2023/09/28 02:54:39;;;;;;;11.53;10.67;;;;;;;15.01;73.96;93146.50;5058167;28;20225;-75
2023/09/28 02:57:04;;;;;;;11.20;10.17;;;;;;;15.04;74.41;93163.56;5063392;28;20917;-74
2023/09/28 02:59:31;;;;;;;10.97;9.60;;;;;;;14.81;74.22;93152.16;5068648;28;20213;-75
2023/09/28 03:01:56;;;;;;;11.23;10.43;;;;;;;14.88;73.94;93151.78;5068424;28;20173;-75
2023/09/28 03:04:22;;;;;;;11.23;10.43;;;;;;;14.92;73.62;93161.41;5056441;28;20229;-75
2023/09/28 03:06:48;;;;;;;10.73;10.03;;;;;;;14.92;74.00;93163.25;5054785;28;20193;-75
2023/09/28 03:09:16;;;;;;;11.60;10.57;;;;;;;14.99;73.19;93153.91;5055329;28;20217;-75
2023/09/28 03:11:42;;;;;;;11.17;10.33;;;;;;;15.02;72.63;93163.84;5057390;28;20198;-74
2023/09/28 03:14:08;;;;;;;16.03;10.30;;;;;;;14.90;73.72;93155.66;5058357;28;20731;-76
2023/09/28 03:16:34;;;;;;;12.70;11.77;;;;;;;15.10;73.63;93157.13;5063319;28;20190;-75
2023/09/28 03:19:00;;;;;;;10.90;10.00;;;;;;;14.89;74.10;93148.06;5060011;28;20245;-75
2023/09/28 03:21:29;;;;;;;10.67;9.97;;;;;;;14.99;73.81;93153.91;5067796;28;20178;-75
2023/09/28 03:23:59;;;;;;;12.00;10.87;;;;;;;14.99;73.91;93159.16;5064329;28;20230;-75
2023/09/28 03:26:25;;;;;;;10.83;9.87;;;;;;;15.08;73.00;93156.66;5049458;28;20217;-75
2023/09/28 03:28:50;;;;;;;10.20;9.60;;;;;;;15.14;73.45;93152.84;5061765;28;20221;-75
2023/09/28 03:31:16;;;;;;;11.00;10.20;;;;;;;15.03;73.39;93144.38;5064748;28;20184;-75
2023/09/28 03:33:41;;;;;;;9.37;8.60;;;;;;;15.14;72.88;93150.22;5066208;28;20229;-74
2023/09/28 03:36:07;;;;;;;10.70;9.80;;;;;;;15.23;73.29;93151.09;5067622;28;20234;-74
2023/09/28 03:38:33;;;;;;;11.23;10.27;;;;;;;15.13;73.40;93153.94;5060211;28;20233;-75
2023/09/28 03:40:58;;;;;;;10.77;9.93;;;;;;;15.21;73.59;93150.59;5054383;28;20193;-75
2023/09/28 03:43:24;;;;;;;11.27;10.20;;;;;;;15.23;73.51;93138.72;5068403;28;20251;-75
2023/09/28 03:45:49;;;;;;;11.60;10.63;;;;;;;15.15;73.88;93143.88;5068609;28;20193;-75
2023/09/28 03:48:15;;;;;;;11.23;10.43;;;;;;;15.07;74.56;93149.81;5065841;28;20217;-75
2023/09/28 03:50:40;;;;;;;10.53;9.70;;;;;;;15.09;74.31;93145.84;5066293;28;20190;-75
2023/09/28 03:53:06;;;;;;;10.30;9.67;;;;;;;15.22;74.16;93149.53;5067740;28;20219;-75
2023/09/28 03:55:31;;;;;;;10.87;10.10;;;;;;;15.27;74.25;93155.47;5061446;28;20213;-75
2023/09/28 03:58:02;;;;;;;10.67;9.47;;;;;;;15.32;74.97;93162.47;5057319;28;20285;-75
2023/09/28 04:00:27;;;;;;;10.40;9.40;;;;;;;15.10;74.58;93146.59;5039759;28;20186;-74
2023/09/28 04:02:53;;;;;;;11.13;10.33;;;;;;;15.10;75.11;93155.28;5056480;28;20230;-75
2023/09/28 04:05:19;;;;;;;11.87;10.37;;;;;;;15.07;74.92;93147.19;5053337;28;20210;-75
2023/09/28 04:07:44;;;;;;;12.07;9.33;;;;;;;15.20;74.64;93159.56;5046125;28;20190;-75
2023/09/28 04:10:11;;;;;;;10.57;9.87;;;;;;;15.03;74.62;93146.22;5081085;28;20191;-78
2023/09/28 04:12:37;;;;;;;11.20;10.10;;;;;;;15.11;75.11;93150.81;5064272;28;21589;-74
2023/09/28 04:15:04;;;;;;;10.20;9.37;;;;;;;15.12;74.47;93147.88;5073343;28;20237;-73
2023/09/28 04:17:30;;;;;;;10.90;10.20;;;;;;;15.15;74.54;93147.28;5068788;28;20185;-73
2023/09/28 04:19:55;;;;;;;14.47;10.40;;;;;;;15.20;74.41;93154.31;5064981;28;20217;-72
2023/09/28 04:26:58;;;;;;;12.80;11.80;;;;;;;15.23;74.38;93148.47;5137762;27;20286;-74
2023/09/28 04:29:27;;;;;;;10.67;9.77;;;;;;;15.33;73.93;93153.53;5108437;27;20279;-74
2023/09/28 04:31:53;;;;;;;10.93;10.03;;;;;;;15.39;73.02;93150.50;5102183;28;20206;-74
2023/09/28 04:34:19;;;;;;;12.00;11.00;;;;;;;15.49;72.73;93149.53;5107239;28;20222;-73
2023/09/28 04:36:45;;;;;;;11.07;10.37;;;;;;;15.51;72.34;93150.81;5104224;28;20224;-73
2023/09/28 04:39:11;;;;;;;10.47;9.67;;;;;;;15.61;71.70;93162.97;5104816;28;20220;-73
2023/09/28 04:41:37;;;;;;;11.57;10.70;;;;;;;15.79;71.05;93162.06;5109805;28;20205;-73
2023/09/28 04:44:09;;;;;;;13.67;9.60;;;;;;;15.79;70.19;93162.06;5099060;28;20242;-73
2023/09/28 04:46:34;;;;;;;9.87;9.13;;;;;;;15.95;69.99;93163.28;5113383;28;20211;-73
2023/09/28 04:49:00;;;;;;;10.77;9.87;;;;;;;16.19;69.13;93171.69;5100381;28;20223;-73
2023/09/28 04:51:26;;;;;;;11.20;10.33;;;;;;;16.24;69.61;93171.56;5108026;28;20189;-73
2023/09/28 04:53:51;;;;;;;11.60;10.73;;;;;;;16.33;68.88;93180.31;5098839;28;20239;-73
2023/09/28 04:56:17;;;;;;;11.43;10.37;;;;;;;16.50;67.83;93177.81;5102963;28;20178;-74
2023/09/28 04:58:43;;;;;;;10.53;9.33;;;;;;;16.50;67.75;93185.72;5110453;28;20227;-74
2023/09/28 05:01:09;;;;;;;10.57;9.60;;;;;;;16.58;68.09;93179.75;5104697;28;20184;-73
2023/09/28 05:03:35;;;;;;;10.63;9.97;;;;;;;16.72;66.95;93191.00;5112483;28;20228;-74
2023/09/28 05:06:00;;;;;;;18.13;12.63;;;;;;;16.66;67.23;93188.78;5086635;28;20239;-74
2023/09/28 05:08:26;;;;;;;43.13;22.00;;;;;;;16.74;67.43;93178.31;5102945;28;20227;-74
2023/09/28 05:10:53;;;;;;;50.43;26.67;;;;;;;16.87;67.50;93195.88;5110395;28;20192;-75
2023/09/28 05:13:20;;;;;;;21.03;13.50;;;;;;;16.93;66.63;93192.06;5106204;28;20247;-74
2023/09/28 05:15:46;;;;;;;12.87;11.57;;;;;;;17.06;65.92;93193.03;5103179;28;20184;-74
2023/09/28 05:18:11;;;;;;;11.53;10.57;;;;;;;17.02;67.27;93192.09;5104108;28;20231;-76
2023/09/28 05:20:37;;;;;;;12.00;10.90;;;;;;;17.14;65.28;93198.34;5105153;28;20206;-75
2023/09/28 05:23:03;;;;;;;11.60;10.50;;;;;;;17.12;66.04;93197.88;5109127;28;20227;-74
2023/09/28 05:25:29;;;;;;;13.37;12.17;;;;;;;17.17;66.54;93196.97;5104701;28;20251;-74
2023/09/28 05:27:54;;;;;;;13.17;12.23;;;;;;;17.21;66.69;93193.41;5106771;28;20220;-74
2023/09/28 05:30:20;;;;;;;12.53;11.53;;;;;;;17.15;68.69;93194.63;5102381;28;20199;-74
2023/09/28 05:32:46;;;;;;;11.90;11.10;;;;;;;17.01;67.07;93193.19;5084705;28;20207;-74
2023/09/28 05:35:11;;;;;;;12.37;11.13;;;;;;;17.33;66.00;93206.03;5107087;28;20196;-73
2023/09/28 05:37:37;;;;;;;14.33;12.53;;;;;;;17.32;65.88;93199.22;5091599;28;20192;-73
2023/09/28 05:40:04;;;;;;;10.77;9.97;;;;;;;17.47;65.62;93207.53;5084670;28;20244;-74
2023/09/28 05:42:30;;;;;;;11.43;10.30;;;;;;;17.40;68.27;93212.44;5087593;28;20199;-73
2023/09/28 05:44:55;;;;;;;10.63;9.67;;;;;;;17.48;67.04;93208.28;5090229;28;20232;-73
2023/09/28 05:47:21;;;;;;;11.33;9.93;;;;;;;17.29;69.26;93199.81;5090931;28;20188;-73
2023/09/28 05:49:51;;;;;;;11.73;10.73;;;;;;;17.40;68.68;93207.16;5084410;28;20230;-73
2023/09/28 05:52:18;;;;;;;10.60;9.90;;;;;;;17.40;65.31;93207.16;5093182;28;20296;-73
2023/09/28 05:54:43;;;;;;;16.13;10.87;;;;;;;17.34;67.22;93208.38;5095686;28;20233;-73
2023/09/28 05:57:09;;;;;;;14.23;10.30;;;;;;;17.19;67.93;93208.78;5087794;28;20185;-73
2023/09/28 05:59:34;;;;;;;13.70;10.80;;;;;;;17.47;67.50;93207.53;5088448;28;20220;-73
2023/09/28 06:01:59;;;;;;;12.00;10.97;;;;;;;17.63;66.32;93211.28;5094458;28;20224;-73
2023/09/28 06:04:25;;;;;;;11.60;10.50;;;;;;;17.70;65.48;93210.09;5085320;28;20234;-73
2023/09/28 06:06:50;;;;;;;13.97;10.30;;;;;;;17.51;67.31;93216.38;5098681;28;20222;-73
2023/09/28 06:09:20;;;;;;;10.40;9.40;;;;;;;17.31;68.98;93213.47;5089006;28;20220;-72
2023/09/28 06:11:46;;;;;;;14.40;9.43;;;;;;;17.34;67.77;93208.38;5099845;28;20189;-73
2023/09/28 06:14:14;;;;;;;16.37;10.13;;;;;;;17.41;67.17;93211.38;5089364;28;20259;-72
2023/09/28 06:16:40;;;;;;;11.77;10.50;;;;;;;17.49;67.27;93209.88;5088583;28;20193;-73
2023/09/28 06:19:06;;;;;;;13.27;10.63;;;;;;;17.67;66.03;93214.09;5089154;28;21117;-74
2023/09/28 06:21:32;;;;;;;11.00;10.13;;;;;;;17.80;65.98;93215.06;5092016;28;20213;-75
2023/09/28 06:23:58;;;;;;;13.63;9.47;;;;;;;17.75;66.25;93209.94;5090141;28;20250;-75
2023/09/28 06:26:24;;;;;;;11.43;10.33;;;;;;;17.84;66.19;93205.47;5090739;28;20248;-76
2023/09/28 06:28:49;;;;;;;14.80;11.57;;;;;;;17.81;64.71;93184.91;5091275;28;20237;-76
2023/09/28 06:31:17;;;;;;;15.00;11.27;;;;;;;17.35;67.20;93175.59;5093434;28;20212;-72
2023/09/28 06:33:43;;;;;;;17.83;13.47;;;;;;;17.96;66.68;93218.84;5081420;28;20220;-74
2023/09/28 06:36:09;;;;;;;12.93;11.63;;;;;;;17.93;64.96;93222.09;5087288;28;20207;-74
2023/09/28 06:38:34;;;;;;;15.77;12.13;;;;;;;18.22;64.79;93212.50;5085759;28;20217;-73
2023/09/28 06:41:00;;;;;;;17.57;11.67;;;;;;;17.87;66.43;93215.41;5098352;28;20193;-75
2023/09/28 06:43:25;;;;;;;18.47;11.60;;;;;;;17.99;64.76;93215.59;5086955;28;20232;-74
2023/09/28 06:45:51;;;;;;;13.60;12.20;;;;;;;18.27;63.07;93219.50;5082780;28;20312;-78
2023/09/28 06:48:18;;;;;;;11.97;11.03;;;;;;;18.34;63.83;93225.09;5087781;28;20237;-73
2023/09/28 06:50:44;;;;;;;12.73;11.50;;;;;;;18.82;60.79;93228.38;5089166;28;20248;-74
2023/09/28 06:53:09;;;;;;;14.57;11.03;;;;;;;18.84;60.98;93234.13;5080544;28;20225;-74
2023/09/28 06:55:36;;;;;;;18.60;11.03;;;;;;;18.43;63.13;93212.66;5087708;28;20682;-72
2023/09/28 06:58:06;;;;;;;12.87;11.63;;;;;;;18.54;63.12;93233.22;5082716;28;20233;-72
2023/09/28 07:00:32;;;;;;;14.33;10.60;;;;;;;18.31;62.69;93223.84;5072821;28;20190;-71
2023/09/28 07:02:57;;;;;;;19.57;11.77;;;;;;;18.42;62.87;93208.47;5064873;28;20219;-74
2023/09/28 07:05:23;;;;;;;18.50;11.30;;;;;;;18.62;62.66;93247.53;5086166;28;20213;-75
2023/09/28 07:07:49;;;;;;;13.53;11.27;;;;;;;19.02;60.40;93246.22;5083109;28;20182;-73
2023/09/28 07:10:15;;;;;;;11.67;10.57;;;;;;;18.97;59.55;93239.22;5083921;28;20209;-74
2023/09/28 07:12:40;;;;;;;17.93;10.77;;;;;;;18.94;60.30;93242.50;5066348;28;20196;-74
2023/09/28 07:15:07;;;;;;;12.60;10.77;;;;;;;18.97;59.61;93257.00;5083501;28;20277;-73
2023/09/28 07:17:36;;;;;;;13.63;10.23;;;;;;;18.91;60.72;93245.03;5083024;28;20197;-73
2023/09/28 07:20:03;;;;;;;17.87;10.67;;;;;;;18.48;61.19;93250.34;5086865;28;20191;-74
2023/09/28 07:22:28;;;;;;;16.40;12.27;;;;;;;19.09;60.61;93257.91;5090389;28;20208;-75
2023/09/28 07:24:55;;;;;;;13.00;11.03;;;;;;;19.17;59.77;93253.69;5068029;28;20218;-74
2023/09/28 07:27:21;;;;;;;11.30;10.17;;;;;;;19.08;59.50;93258.22;5084059;28;20189;-72
2023/09/28 07:29:46;;;;;;;14.10;10.40;;;;;;;19.20;60.59;93250.41;5089173;28;20233;-71
2023/09/28 07:32:12;;;;;;;12.67;11.67;;;;;;;19.27;62.06;93244.63;5080359;28;20206;-74
2023/09/28 07:34:37;;;;;;;12.87;11.43;;;;;;;19.82;58.56;93248.81;5087656;28;20222;-71
2023/09/28 07:37:03;;;;;;;16.40;10.60;;;;;;;19.78;59.03;93258.47;5095118;28;20194;-73
2023/09/28 07:39:29;;;;;;;14.60;12.00;;;;;;;19.72;60.23;93254.47;5090738;28;20231;-72
2023/09/28 07:41:54;;;;;;;12.30;10.47;;;;;;;19.91;58.68;93240.81;5081721;28;20192;-73
2023/09/28 07:44:20;;;;;;;22.27;10.13;;;;;;;20.07;59.05;93242.59;5081441;28;20321;-72
2023/09/28 07:46:46;;;;;;;17.00;15.20;;;;;;;19.66;62.27;93242.50;5087639;28;20713;-71
2023/09/28 07:49:14;;;;;;;22.53;17.30;;;;;;;20.06;60.10;93241.03;5081240;28;20281;-73
2023/09/28 07:51:40;;;;;;;18.97;13.63;;;;;;;20.36;59.42;93242.59;5082550;28;20188;-73
2023/09/28 07:54:05;;;;;;;19.70;12.00;;;;;;;20.41;59.93;93244.28;5074053;28;20317;-76
2023/09/28 07:56:31;;;;;;;16.87;13.93;;;;;;;20.32;59.14;93232.94;5068108;28;20188;-74
2023/09/28 07:58:57;;;;;;;16.97;12.83;;;;;;;20.59;58.43;93249.13;5081156;28;20213;-75
2023/09/28 08:01:23;;;;;;;12.87;11.67;;;;;;;20.72;57.22;93249.22;5084080;28;20242;-75
2023/09/28 08:03:48;;;;;;;12.85;11.60;;;;;;;20.83;58.68;93250.34;5069111;28;20231;-75
2023/09/28 08:06:14;;;;;;;15.37;10.97;;;;;;;20.30;60.79;93243.88;5081578;28;20218;-75
2023/09/28 08:08:39;;;;;;;11.85;10.30;;;;;;;20.72;57.91;93243.91;5083256;28;20264;-77
2023/09/28 08:11:04;;;;;;;12.52;11.40;;;;;;;21.05;58.29;93256.13;5088541;28;20183;-80
2023/09/28 08:13:30;;;;;;;10.97;9.83;;;;;;;21.39;57.41;93252.31;5086890;28;20260;-79
2023/09/28 08:15:55;;;;;;;12.50;11.27;;;;;;;21.47;58.09;93259.44;5086799;28;20185;-79
2023/09/28 08:18:21;;;;;;;10.50;9.55;;;;;;;20.87;57.99;93245.94;5087376;28;20227;-79
2023/09/28 08:20:47;;;;;;;12.73;11.18;;;;;;;21.22;56.63;93247.19;5097777;28;20206;-77
2023/09/28 08:23:12;;;;;;;10.60;9.50;;;;;;;21.63;55.29;93258.47;5087307;28;20220;-78
2023/09/28 08:25:37;;;;;;;19.52;11.73;;;;;;;21.21;56.63;93246.44;5083471;28;20249;-77
2023/09/28 08:28:03;;;;;;;9.63;8.93;;;;;;;21.36;55.81;93247.66;5088053;28;20227;-79
2023/09/28 08:30:28;;;;;;;12.20;11.15;;;;;;;21.38;55.96;93240.94;5086756;28;20173;-77
2023/09/28 08:32:54;;;;;;;10.05;9.23;;;;;;;21.72;54.14;93255.72;5085887;28;20255;-76
2023/09/28 08:35:20;;;;;;;10.77;9.88;;;;;;;21.63;55.13;93263.00;5090419;28;20217;-76
2023/09/28 08:37:45;;;;;;;10.27;9.25;;;;;;;21.66;53.90;93262.34;5085803;28;20258;-78
2023/09/28 08:40:11;;;;;;;11.35;10.18;;;;;;;21.49;54.33;93236.75;5090814;28;20184;-77
2023/09/28 08:42:38;;;;;;;13.02;11.82;;;;;;;21.69;55.20;93256.38;5090279;28;20291;-77
2023/09/28 08:45:05;;;;;;;10.52;9.52;;;;;;;22.05;53.38;93253.75;5084774;28;20213;-76
2023/09/28 08:47:39;;;;;;;10.05;9.35;;;;;;;21.37;56.89;93255.31;5083767;28;20197;-77
2023/09/28 08:50:06;;;;;;;14.07;11.48;;;;;;;22.22;53.00;93248.22;5084201;28;21071;-81
2023/09/28 08:52:34;;;;;;;14.57;10.63;;;;;;;21.94;54.01;93247.34;5094116;28;20193;-74
2023/09/28 08:55:00;;;;;;;11.68;10.57;;;;;;;22.05;56.12;93238.56;5093113;28;20203;-75
2023/09/28 08:57:27;;;;;;;10.52;9.45;;;;;;;22.23;53.58;93241.00;5087747;28;20188;-75
2023/09/28 08:59:53;;;;;;;10.73;9.77;;;;;;;20.94;56.91;93216.97;5081166;28;20582;-76
2023/09/28 09:02:18;;;;;;;11.13;9.98;;;;;;;20.42;57.14;93220.06;5089181;28;20211;-76
2023/09/28 09:04:45;;;;;;;10.70;9.80;;;;;;;21.15;56.28;93241.66;5102593;28;20302;-74
2023/09/28 09:07:11;;;;;;;10.05;8.73;;;;;;;20.86;56.41;93237.19;5089631;28;20197;-75
2023/09/28 09:09:40;;;;;;;12.00;9.30;;;;;;;20.81;56.41;93241.94;5085118;28;20243;-79
2023/09/28 09:12:10;;;;;;;11.38;10.23;;;;;;;20.66;56.71;93238.78;5083305;28;20246;-78
2023/09/28 09:14:35;;;;;;;10.10;9.10;;;;;;;20.20;57.74;93228.34;5097490;28;20235;-79
2023/09/28 09:17:02;;;;;;;13.30;9.20;;;;;;;20.06;57.74;93235.72;5090836;28;20641;-78
2023/09/28 09:19:31;;;;;;;12.68;9.75;;;;;;;19.89;60.60;93222.56;5090371;28;20208;-74
2023/09/28 09:21:57;;;;;;;10.90;9.93;;;;;;;19.88;60.78;93226.31;5088659;28;20186;-74
2023/09/28 09:24:23;;;;;;;10.55;9.65;;;;;;;19.86;60.01;93225.88;5084016;28;20232;-74
2023/09/28 09:26:53;;;;;;;11.18;9.98;;;;;;;20.32;58.28;93225.00;5090325;28;20255;-76
2023/09/28 09:29:19;;;;;;;10.75;9.85;;;;;;;20.38;58.57;93216.53;5089673;28;20267;-74
2023/09/28 09:31:49;;;;;;;11.13;10.13;;;;;;;20.75;57.23;93230.72;5090573;28;20195;-74
2023/09/28 09:34:21;;;;;;;11.23;10.13;;;;;;;20.54;57.83;93225.47;5087385;28;20703;-83
2023/09/28 09:36:54;;;;;;;12.63;9.70;;;;;;;20.69;57.63;93219.56;5091955;28;20221;-74
2023/09/28 09:39:25;;;;;;;15.55;10.10;;;;;;;21.06;56.71;93233.00;5091760;28;20267;-75
2023/09/28 09:41:52;;;;;;;11.10;10.00;;;;;;;20.80;56.43;93235.84;5095815;28;20194;-74
2023/09/28 09:44:22;;;;;;;12.43;11.02;;;;;;;20.39;58.00;93226.03;5073045;28;20228;-77
2023/09/28 09:46:49;;;;;;;17.88;9.93;;;;;;;20.62;58.74;93231.81;5084342;28;20242;-76
2023/09/28 09:49:18;;;;;;;14.05;10.60;;;;;;;20.76;58.99;93229.66;5101734;28;20295;-76
2023/09/28 09:51:45;;;;;;;11.98;10.77;;;;;;;20.83;59.02;93234.41;5088480;28;20188;-75
2023/09/28 09:54:13;;;;;;;11.32;10.25;;;;;;;21.04;56.46;93229.88;5090566;28;20234;-72
2023/09/28 09:56:44;;;;;;;11.13;10.07;;;;;;;20.69;57.19;93221.41;5086312;28;20192;-72
2023/09/28 09:59:12;;;;;;;11.30;10.30;;;;;;;20.96;56.31;93222.78;5086000;28;20223;-72
2023/09/28 10:01:40;;;;;;;11.20;10.27;;;;;;;20.36;58.18;93217.94;5070031;28;20714;-72
2023/09/28 10:04:12;;;;;;;11.57;10.25;;;;;;;20.43;58.81;93220.88;5086294;28;20219;-72
2023/09/28 10:06:39;;;;;;;12.40;11.30;;;;;;;20.62;59.90;93219.28;5092092;28;20207;-72
2023/09/28 10:09:10;;;;;;;11.88;10.82;;;;;;;20.22;60.20;93204.94;5099491;28;20227;-73
2023/09/28 10:11:38;;;;;;;13.32;10.80;;;;;;;20.39;60.33;93199.50;5091178;28;20181;-72
2023/09/28 10:14:04;;;;;;;12.00;10.80;;;;;;;20.69;59.96;93214.25;5088872;28;20495;-72
2023/09/28 10:16:34;;;;;;;12.02;10.98;;;;;;;21.09;58.05;93203.88;5071996;28;20192;-72
2023/09/28 10:19:04;;;;;;;14.38;10.13;;;;;;;21.10;58.00;93218.75;5086078;28;20250;-72
2023/09/28 10:21:34;;;;;;;10.82;9.73;;;;;;;21.37;57.90;93201.41;5087248;28;20179;-72
2023/09/28 10:24:08;;;;;;;11.15;10.18;;;;;;;21.84;56.20;93207.88;5073711;28;20222;-72
2023/09/28 10:26:35;;;;;;;15.20;10.02;;;;;;;21.90;55.69;93198.56;5089477;28;20258;-72
2023/09/28 10:29:04;;;;;;;10.45;9.57;;;;;;;21.91;56.36;93208.91;5081788;28;20228;-72
2023/09/28 10:31:38;;;;;;;10.55;9.48;;;;;;;21.69;56.42;93197.91;5083950;28;20186;-72
2023/09/28 10:34:04;;;;;;;11.23;10.27;;;;;;;21.43;56.90;93165.56;5086022;28;20292;-72
2023/09/28 10:36:32;;;;;;;10.48;9.68;;;;;;;22.07;55.78;93190.38;5074251;28;20182;-72
2023/09/28 10:39:16;;;;;;;11.65;10.70;;;;;;;21.87;55.79;93200.03;5090765;28;20227;-72
2023/09/28 10:41:52;;;;;;;13.43;10.77;;;;;;;22.42;54.32;93194.06;5086281;28;20203;-73
2023/09/28 10:44:20;;;;;;;15.43;10.82;;;;;;;22.55;54.77;93200.94;5089375;28;20231;-72
2023/09/28 10:46:51;;;;;;;12.70;9.80;;;;;;;22.59;53.34;93193.81;5090005;28;20225;-71
2023/09/28 10:49:23;;;;;;;10.63;9.55;;;;;;;22.39;53.83;93199.28;5090298;28;20222;-71
2023/09/28 10:51:49;;;;;;;12.45;10.73;;;;;;;21.44;56.32;93189.13;5089508;28;20640;-71
2023/09/28 10:54:14;;;;;;;12.85;9.90;;;;;;;21.41;56.79;93192.47;5081119;28;20230;-72
2023/09/28 10:56:40;;;;;;;11.45;10.40;;;;;;;21.29;58.01;93195.06;5084813;28;20206;-72
2023/09/28 10:59:11;;;;;;;11.63;9.57;;;;;;;21.88;57.10;93176.88;5087598;28;20292;-72
2023/09/28 11:01:44;;;;;;;10.90;9.98;;;;;;;22.23;55.22;93190.47;5089001;28;20512;-71
2023/09/28 11:04:10;;;;;;;13.18;10.57;;;;;;;22.11;55.29;93189.38;5079031;28;20307;-72
2023/09/28 11:06:35;;;;;;;11.05;10.35;;;;;;;22.18;54.78;93188.78;5084782;28;20214;-72
2023/09/28 11:09:02;;;;;;;11.40;10.15;;;;;;;22.09;55.99;93185.47;5087430;28;20239;-71
2023/09/28 11:11:29;;;;;;;11.70;10.65;;;;;;;21.96;56.27;93181.31;5088252;28;20182;-72
2023/09/28 11:13:57;;;;;;;11.32;10.52;;;;;;;21.64;57.17;93187.47;5086288;28;20216;-73
2023/09/28 11:16:22;;;;;;;12.65;10.45;;;;;;;21.71;56.73;93163.78;5084001;28;20192;-73
2023/09/28 11:18:48;;;;;;;11.65;10.50;;;;;;;21.65;59.21;93181.06;5077334;28;20217;-73
2023/09/28 11:21:15;;;;;;;10.95;9.85;;;;;;;22.01;56.47;93189.03;5079175;28;20612;-72
2023/09/28 11:23:40;;;;;;;11.02;9.98;;;;;;;21.74;57.25;93179.06;5090853;28;20237;-73